createdAt,value
2018-03-04T00:00:23.485Z,46.20
2018-03-04T00:02:58.205Z,50.63
2018-03-04T00:05:33.115Z,49.03
2018-03-04T00:08:07.689Z,50.27
2018-03-04T00:10:37.290Z,47.60
2018-03-04T00:13:11.563Z,50.37
2018-03-04T00:15:46.993Z,51.93
2018-03-04T00:18:16.584Z,51.17
2018-03-04T00:20:51.236Z,52.43
2018-03-04T00:23:25.900Z,49.83
2018-03-04T00:26:00.413Z,53.23
2018-03-04T00:28:34.952Z,50.07
2018-03-04T00:31:10.381Z,49.60
2018-03-04T00:33:41.782Z,51.00
2018-03-04T00:36:17.246Z,51.53
2018-03-04T00:38:51.909Z,53.20
2018-03-04T00:41:26.523Z,51.77
2018-03-04T00:44:01.052Z,51.20
2018-03-04T00:46:35.667Z,51.90
2018-03-04T00:49:10.279Z,51.83
2018-03-04T00:51:44.721Z,51.30
2018-03-04T00:54:19.324Z,51.40
2018-03-04T00:56:54.123Z,51.67
2018-03-04T00:59:24.602Z,51.20
2018-03-04T01:01:59.135Z,51.20
2018-03-04T01:04:33.832Z,52.30
2018-03-04T01:07:08.458Z,52.10
2018-03-04T01:09:44.411Z,53.50
2018-03-04T01:12:19.091Z,54.63
2018-03-04T01:14:54.492Z,53.17
2018-03-04T01:17:29.108Z,52.70
2018-03-04T01:20:03.720Z,52.13
2018-03-04T01:22:38.250Z,53.63
2018-03-04T01:25:12.791Z,52.07
2018-03-04T01:27:47.498Z,52.80
2018-03-04T01:30:22.064Z,50.77
2018-03-04T01:32:56.656Z,52.73
2018-03-04T01:35:31.375Z,51.70
2018-03-04T01:38:06.634Z,51.80
2018-03-04T01:40:41.159Z,53.20
2018-03-04T01:43:15.539Z,53.70
2018-03-04T01:45:50.156Z,53.70
2018-03-04T01:48:26.384Z,53.93
2018-03-04T01:51:01.082Z,54.50
2018-03-04T01:53:35.656Z,50.10
2018-03-04T01:56:10.370Z,51.43
2018-03-04T01:58:45.071Z,51.27
2018-03-04T02:01:19.573Z,53.27
2018-03-04T02:03:54.066Z,51.60
2018-03-04T02:06:28.628Z,52.20
2018-03-04T02:09:02.739Z,52.43
2018-03-04T02:11:41.240Z,54.53
2018-03-04T02:14:16.963Z,52.70
2018-03-04T02:16:51.526Z,52.23
2018-03-04T02:19:26.052Z,50.17
2018-03-04T02:22:00.680Z,52.50
2018-03-04T02:24:35.270Z,51.47
2018-03-04T02:27:20.686Z,51.87
2018-03-04T02:29:55.276Z,51.40
2018-03-04T02:32:29.915Z,51.53
2018-03-04T02:35:04.565Z,51.43
2018-03-04T02:37:39.098Z,51.63
2018-03-04T02:40:13.666Z,52.40
2018-03-04T02:42:48.264Z,51.93
2018-03-04T02:45:23.007Z,53.20
2018-03-04T02:47:57.552Z,51.20
2018-03-04T02:50:32.988Z,54.50
2018-03-04T02:53:08.575Z,51.97
2018-03-04T02:55:43.957Z,52.27
2018-03-04T02:58:18.644Z,51.53
2018-03-04T03:00:53.147Z,49.73
2018-03-04T03:03:27.953Z,51.40
2018-03-04T03:06:02.541Z,50.90
2018-03-04T03:08:32.518Z,50.53
2018-03-04T03:11:07.140Z,52.20
2018-03-04T03:13:41.804Z,51.20
2018-03-04T03:16:17.300Z,50.60
2018-03-04T03:18:51.979Z,50.53
2018-03-04T03:21:26.468Z,51.87
2018-03-04T03:23:56.102Z,51.60
2018-03-04T03:26:30.676Z,53.63
2018-03-04T03:29:06.129Z,50.20
2018-03-04T03:31:40.646Z,50.07
2018-03-04T03:34:15.567Z,48.17
2018-03-04T03:36:51.027Z,51.40
2018-03-04T03:39:25.755Z,51.27
2018-03-04T03:42:00.509Z,50.07
2018-03-04T03:44:35.232Z,50.63
2018-03-04T03:47:10.139Z,49.00
2018-03-04T03:49:44.649Z,48.30
2018-03-04T03:52:19.287Z,49.53
2018-03-04T03:54:54.472Z,50.10
2018-03-04T03:57:28.963Z,49.90
2018-03-04T04:00:03.537Z,48.50
2018-03-04T04:02:32.949Z,50.53
2018-03-04T04:05:07.483Z,46.73
2018-03-04T04:07:42.230Z,48.90
2018-03-04T04:10:16.905Z,51.43
2018-03-04T04:12:51.371Z,47.37
2018-03-04T04:15:25.784Z,48.83
2018-03-04T04:18:00.494Z,47.27
2018-03-04T04:20:31.031Z,46.87
2018-03-04T04:23:05.615Z,50.07
2018-03-04T04:25:40.154Z,47.77
2018-03-04T04:28:12.994Z,49.20
2018-03-04T04:30:47.474Z,49.97
2018-03-04T04:33:22.201Z,48.60
2018-03-04T04:35:56.927Z,48.43
2018-03-04T04:38:31.778Z,46.63
2018-03-04T04:41:06.403Z,47.70
2018-03-04T04:43:40.938Z,46.33
2018-03-04T04:46:15.502Z,48.30
2018-03-04T04:48:50.277Z,46.20
2018-03-04T04:51:25.205Z,48.60
2018-03-04T04:54:00.799Z,46.83
2018-03-04T04:56:36.182Z,46.27
2018-03-04T04:59:10.741Z,47.57
2018-03-04T05:01:40.256Z,49.63
2018-03-04T05:04:17.867Z,49.63
2018-03-04T05:06:52.397Z,47.67
2018-03-04T05:09:26.220Z,48.57
2018-03-04T05:12:01.257Z,48.90
2018-03-04T05:14:35.701Z,49.23
2018-03-04T05:17:10.454Z,48.67
2018-03-04T05:19:45.163Z,48.03
2018-03-04T05:22:22.344Z,47.83
2018-03-04T05:24:56.974Z,48.63
2018-03-04T05:27:31.551Z,48.37
2018-03-04T05:30:06.110Z,47.33
2018-03-04T05:32:40.795Z,47.33
2018-03-04T05:35:15.260Z,47.37
2018-03-04T05:37:50.963Z,47.43
2018-03-04T05:40:25.406Z,47.70
2018-03-04T05:43:00.027Z,46.30
2018-03-04T05:45:35.569Z,50.37
2018-03-04T05:48:11.903Z,49.33
2018-03-04T05:50:46.196Z,48.60
2018-03-04T05:53:20.747Z,48.10
2018-03-04T05:55:55.316Z,48.03
2018-03-04T05:58:30.715Z,48.43
2018-03-04T06:01:05.248Z,50.10
2018-03-04T06:03:39.927Z,48.30
2018-03-04T06:06:14.860Z,48.57
2018-03-04T06:08:50.279Z,47.97
2018-03-04T06:11:25.759Z,47.83
2018-03-04T06:13:55.373Z,49.90
2018-03-04T06:16:30.802Z,47.47
2018-03-04T06:19:06.311Z,49.03
2018-03-04T06:21:40.996Z,46.87
2018-03-04T06:24:15.594Z,47.60
2018-03-04T06:26:50.442Z,49.87
2018-03-04T06:29:19.611Z,47.80
2018-03-04T06:31:54.482Z,46.97
2018-03-04T06:34:29.187Z,46.43
2018-03-04T06:37:05.108Z,47.63
2018-03-04T06:39:34.263Z,47.87
2018-03-04T06:42:08.917Z,46.90
2018-03-04T06:44:43.672Z,48.03
2018-03-04T06:47:18.433Z,44.53
2018-03-04T06:49:53.135Z,45.47
2018-03-04T06:52:27.751Z,46.00
2018-03-04T06:55:02.281Z,46.70
2018-03-04T06:57:36.902Z,44.00
2018-03-04T07:00:11.527Z,44.33
2018-03-04T07:02:46.133Z,44.30
2018-03-04T07:05:20.733Z,46.70
2018-03-04T07:07:55.432Z,43.87
2018-03-04T07:10:31.095Z,43.47
2018-03-04T07:13:03.309Z,43.80
2018-03-04T07:15:38.060Z,44.27
2018-03-04T07:18:12.823Z,44.60
2018-03-04T07:20:47.587Z,44.20
2018-03-04T07:23:22.325Z,42.37
2018-03-04T07:25:56.915Z,40.10
2018-03-04T07:28:31.444Z,41.60
2018-03-04T07:31:05.623Z,39.70
2018-03-04T07:33:40.180Z,41.80
2018-03-04T07:36:15.861Z,39.73
2018-03-04T07:38:50.477Z,42.03
2018-03-04T07:41:25.130Z,41.33
2018-03-04T07:43:59.679Z,38.17
2018-03-04T07:46:34.243Z,39.70
2018-03-04T07:49:08.864Z,39.37
2018-03-04T07:51:43.405Z,39.37
2018-03-04T07:54:18.096Z,39.83
2018-03-04T07:56:47.488Z,39.37
2018-03-04T07:59:22.541Z,39.00
2018-03-04T08:01:57.883Z,38.27
2018-03-04T08:04:27.253Z,38.67
2018-03-04T08:07:02.621Z,38.07
2018-03-04T08:09:37.998Z,38.07
2018-03-04T08:12:12.693Z,39.30
2018-03-04T08:14:47.217Z,36.80
2018-03-04T08:17:22.545Z,38.83
2018-03-04T08:19:57.082Z,36.57
2018-03-04T08:22:31.594Z,36.80
2018-03-04T08:25:17.455Z,36.60
2018-03-04T08:28:14.120Z,36.20
2018-03-04T08:30:48.648Z,36.00
2018-03-04T08:33:23.346Z,36.90
2018-03-04T08:35:58.008Z,37.10
2018-03-04T08:38:32.445Z,35.90
2018-03-04T08:41:07.095Z,35.23
2018-03-04T08:43:42.621Z,38.47
2018-03-04T08:46:17.370Z,36.37
2018-03-04T08:48:52.764Z,36.27
2018-03-04T08:51:28.203Z,34.77
2018-03-04T08:54:02.893Z,37.00
2018-03-04T08:56:37.664Z,36.67
2018-03-04T08:59:12.273Z,33.10
2018-03-04T09:01:47.086Z,36.23
2018-03-04T09:04:21.639Z,34.60
2018-03-04T09:06:56.169Z,34.63
2018-03-04T09:09:31.504Z,34.00
2018-03-04T09:12:06.320Z,35.37
2018-03-04T09:14:40.905Z,32.50
2018-03-04T09:17:15.920Z,33.07
2018-03-04T09:19:50.674Z,35.40
2018-03-04T09:22:25.511Z,34.67
2018-03-04T09:25:00.158Z,34.10
2018-03-04T09:27:34.822Z,35.90
2018-03-04T09:30:09.506Z,35.73
2018-03-04T09:32:44.236Z,36.80
2018-03-04T09:35:19.947Z,34.80
2018-03-04T09:37:54.595Z,36.67
2018-03-04T09:40:29.222Z,37.70
2018-03-04T09:43:03.799Z,35.60
2018-03-04T09:45:39.112Z,36.60
2018-03-04T09:48:13.824Z,35.83
2018-03-04T09:50:48.462Z,34.10
2018-03-04T09:53:23.188Z,35.90
2018-03-04T09:55:58.816Z,34.73
2018-03-04T09:58:33.486Z,34.63
2018-03-04T10:01:08.083Z,37.80
2018-03-04T10:03:43.426Z,35.47
2018-03-04T10:06:18.140Z,34.30
2018-03-04T10:08:52.779Z,34.13
2018-03-04T10:11:27.401Z,33.40
2018-03-04T10:14:02.155Z,34.00
2018-03-04T10:16:36.734Z,34.00
2018-03-04T10:19:11.319Z,34.03
2018-03-04T10:21:45.952Z,34.27
2018-03-04T10:24:20.550Z,33.10
2018-03-04T10:26:49.737Z,32.93
2018-03-04T10:29:24.323Z,32.33
2018-03-04T10:31:58.999Z,33.10
2018-03-04T10:34:33.600Z,33.20
2018-03-04T10:37:08.348Z,30.70
2018-03-04T10:39:43.060Z,32.07
2018-03-04T10:42:17.851Z,31.23
2018-03-04T10:44:53.500Z,31.00
2018-03-04T10:47:28.129Z,30.80
2018-03-04T10:50:02.828Z,32.50
2018-03-04T10:52:37.501Z,32.17
2018-03-04T10:55:11.989Z,31.93
2018-03-04T10:57:46.823Z,31.97
2018-03-04T11:00:24.117Z,32.73
2018-03-04T11:03:00.003Z,31.57
2018-03-04T11:05:34.464Z,31.90
2018-03-04T11:08:08.839Z,33.27
2018-03-04T11:10:43.384Z,33.63
2018-03-04T11:13:18.104Z,31.60
2018-03-04T11:15:52.572Z,33.40
2018-03-04T11:18:28.100Z,31.00
2018-03-04T11:21:02.673Z,31.67
2018-03-04T11:23:37.225Z,30.43
2018-03-04T11:26:11.831Z,29.70
2018-03-04T11:28:46.430Z,29.20
2018-03-04T11:31:21.296Z,29.47
2018-03-04T11:33:55.877Z,31.37
2018-03-04T11:36:31.337Z,29.40
2018-03-04T11:39:05.722Z,29.20
2018-03-04T11:41:40.411Z,28.93
2018-03-04T11:44:15.735Z,30.20
2018-03-04T11:46:50.615Z,27.57
2018-03-04T11:49:25.298Z,30.20
2018-03-04T11:51:56.019Z,27.83
2018-03-04T11:54:32.152Z,30.37
2018-03-04T11:57:07.653Z,29.77
2018-03-04T11:59:42.422Z,29.23
2018-03-04T12:02:17.081Z,28.50
2018-03-04T12:04:51.714Z,27.77
2018-03-04T12:07:26.391Z,27.20
2018-03-04T12:10:01.406Z,27.30
2018-03-04T12:12:35.944Z,26.43
2018-03-04T12:15:10.531Z,27.60
2018-03-04T12:17:45.362Z,28.00
2018-03-04T12:20:20.019Z,27.70
2018-03-04T12:22:54.839Z,28.20
2018-03-04T12:25:24.220Z,25.63
2018-03-04T12:27:59.628Z,28.13
2018-03-04T12:30:34.325Z,30.00
2018-03-04T12:33:08.853Z,27.77
2018-03-04T12:35:43.538Z,28.20
2018-03-04T12:38:18.096Z,28.10
2018-03-04T12:40:48.070Z,28.60
2018-03-04T12:43:22.618Z,27.30
2018-03-04T12:45:57.223Z,27.47
2018-03-04T12:48:26.385Z,27.00
2018-03-04T12:51:00.807Z,29.97
2018-03-04T12:53:35.408Z,26.07
2018-03-04T12:56:10.214Z,26.77
2018-03-04T12:58:45.155Z,29.07
2018-03-04T13:01:20.813Z,27.03
2018-03-04T13:03:55.594Z,28.50
2018-03-04T13:06:31.234Z,26.03
2018-03-04T13:09:06.204Z,27.73
2018-03-04T13:11:41.481Z,25.53
2018-03-04T13:14:15.438Z,23.13
2018-03-04T13:16:50.779Z,21.90
2018-03-04T13:19:25.325Z,21.17
2018-03-04T13:22:00.384Z,20.90
2018-03-04T13:24:34.996Z,21.80
2018-03-04T13:27:09.704Z,20.27
2018-03-04T13:29:45.227Z,22.10
2018-03-04T13:32:19.977Z,23.03
2018-03-04T13:34:50.142Z,22.57
2018-03-04T13:37:25.617Z,23.70
2018-03-04T13:40:00.411Z,23.53
2018-03-04T13:42:35.083Z,22.00
2018-03-04T13:45:09.837Z,20.97
2018-03-04T13:47:44.546Z,19.27
2018-03-04T13:50:13.659Z,20.10
2018-03-04T13:52:48.329Z,19.80
2018-03-04T13:55:22.935Z,19.83
2018-03-04T13:57:57.711Z,21.00
2018-03-04T14:00:32.489Z,21.83
2018-03-04T14:03:07.328Z,21.07
2018-03-04T14:05:41.799Z,19.70
2018-03-04T14:08:11.118Z,19.80
2018-03-04T14:10:46.024Z,17.83
2018-03-04T14:13:21.366Z,17.60
2018-03-04T14:15:56.071Z,18.30
2018-03-04T14:18:30.762Z,17.07
2018-03-04T14:21:05.316Z,15.83
2018-03-04T14:23:39.960Z,16.80
2018-03-04T14:26:14.496Z,16.63
2018-03-04T14:28:49.329Z,16.50
2018-03-04T14:31:24.721Z,16.37
2018-03-04T14:33:59.430Z,16.17
2018-03-04T14:36:34.857Z,17.80
2018-03-04T14:39:09.639Z,15.70
2018-03-04T14:41:44.328Z,14.90
2018-03-04T14:44:18.871Z,14.77
2018-03-04T14:46:53.614Z,16.13
2018-03-04T14:49:28.122Z,15.40
2018-03-04T14:52:03.532Z,15.87
2018-03-04T14:54:38.220Z,14.80
2018-03-04T14:57:13.069Z,13.60
2018-03-04T14:59:47.726Z,13.40
2018-03-04T15:02:23.208Z,13.50
2018-03-04T15:04:58.511Z,12.40
2018-03-04T15:07:29.834Z,12.97
2018-03-04T15:10:04.323Z,12.47
2018-03-04T15:12:39.670Z,12.10
2018-03-04T15:15:09.166Z,11.33
2018-03-04T15:17:43.769Z,12.20
2018-03-04T15:20:18.304Z,11.70
2018-03-04T15:22:52.909Z,11.67
2018-03-04T15:25:27.508Z,11.70
2018-03-04T15:28:02.065Z,11.20
2018-03-04T15:30:32.388Z,11.90
2018-03-04T15:33:07.163Z,10.93
2018-03-04T15:35:42.788Z,11.87
2018-03-04T15:38:18.263Z,12.53
2018-03-04T15:40:47.391Z,12.20
2018-03-04T15:43:22.031Z,11.70
2018-03-04T15:45:56.644Z,11.23
2018-03-04T15:48:31.322Z,11.07
2018-03-04T15:51:06.807Z,11.00
2018-03-04T15:53:41.451Z,11.63
2018-03-04T15:56:15.993Z,11.83
2018-03-04T15:58:50.694Z,11.27
2018-03-04T16:01:25.396Z,11.30
2018-03-04T16:04:00.051Z,12.47
2018-03-04T16:06:34.559Z,12.33
2018-03-04T16:09:09.188Z,11.30
2018-03-04T16:11:39.718Z,11.70
2018-03-04T16:14:14.472Z,11.17
2018-03-04T16:16:49.156Z,12.97
2018-03-04T16:19:23.710Z,11.00
2018-03-04T16:21:59.956Z,12.20
2018-03-04T16:24:34.589Z,11.13
2018-03-04T16:27:09.448Z,12.53
2018-03-04T16:29:44.222Z,11.30
2018-03-04T16:32:18.922Z,12.07
2018-03-04T16:34:53.545Z,12.00
2018-03-04T16:37:28.136Z,12.87
2018-03-04T16:40:02.709Z,12.90
2018-03-04T16:42:37.313Z,13.17
2018-03-04T16:45:12.183Z,13.40
2018-03-04T16:47:47.046Z,12.57
2018-03-04T16:50:21.634Z,13.70
2018-03-04T16:52:56.461Z,13.60
2018-03-04T16:55:31.290Z,13.70
2018-03-04T16:58:05.878Z,15.10
2018-03-04T17:00:40.602Z,14.93
2018-03-04T17:03:15.884Z,15.90
2018-03-04T17:05:50.663Z,15.43
2018-03-04T17:08:26.122Z,16.03
2018-03-04T17:11:00.978Z,17.90
2018-03-04T17:13:30.168Z,16.00
2018-03-04T17:16:04.735Z,16.47
2018-03-04T17:18:40.497Z,17.13
2018-03-04T17:21:15.039Z,16.97
2018-03-04T17:23:49.653Z,17.90
2018-03-04T17:26:25.665Z,17.00
2018-03-04T17:28:57.469Z,18.30
2018-03-04T17:31:31.961Z,17.90
2018-03-04T17:34:06.470Z,17.57
2018-03-04T17:36:41.016Z,20.40
2018-03-04T17:39:15.777Z,18.50
2018-03-04T17:41:50.746Z,20.00
2018-03-04T17:44:25.719Z,20.60
2018-03-04T17:47:00.289Z,19.40
2018-03-04T17:49:34.839Z,18.17
2018-03-04T17:52:09.610Z,18.37
2018-03-04T17:54:46.108Z,18.23
2018-03-04T17:57:20.660Z,17.90
2018-03-04T17:59:55.401Z,18.97
2018-03-04T18:02:30.727Z,17.23
2018-03-04T18:05:06.433Z,16.60
2018-03-04T18:07:41.353Z,17.00
2018-03-04T18:10:16.741Z,16.93
2018-03-04T18:12:51.528Z,16.70
2018-03-04T18:15:20.673Z,15.43
2018-03-04T18:17:55.977Z,16.90
2018-03-04T18:20:31.535Z,16.07
2018-03-04T18:23:05.996Z,15.47
2018-03-04T18:25:42.625Z,16.00
2018-03-04T18:28:17.379Z,15.03
2018-03-04T18:30:51.915Z,15.03
2018-03-04T18:33:26.549Z,14.60
2018-03-04T18:35:57.109Z,16.50
2018-03-04T18:38:31.776Z,17.00
2018-03-04T18:41:06.521Z,16.83
2018-03-04T18:43:42.517Z,17.13
2018-03-04T18:46:17.111Z,17.07
2018-03-04T18:48:52.355Z,17.83
2018-03-04T18:51:21.680Z,18.37
2018-03-04T18:53:56.387Z,19.83
2018-03-04T18:56:31.095Z,20.10
2018-03-04T18:59:06.507Z,19.97
2018-03-04T19:01:41.383Z,18.05
2018-03-04T19:04:15.957Z,19.80
2018-03-04T19:06:46.268Z,20.47
2018-03-04T19:09:20.881Z,22.00
2018-03-04T19:11:55.829Z,23.50
2018-03-04T19:14:30.550Z,23.47
2018-03-04T19:17:05.901Z,25.03
2018-03-04T19:19:40.931Z,24.23
2018-03-04T19:22:15.422Z,26.63
2018-03-04T19:24:44.652Z,26.93
2018-03-04T19:27:20.090Z,28.40
2018-03-04T19:29:54.816Z,29.50
2018-03-04T19:32:24.011Z,29.50
2018-03-04T19:34:53.434Z,32.13
2018-03-04T19:37:23.673Z,32.30
2018-03-04T19:39:53.724Z,34.00
2018-03-04T19:42:24.005Z,32.40
2018-03-04T19:44:59.479Z,34.20
2018-03-04T19:47:34.984Z,35.87
2018-03-04T19:50:10.286Z,35.20
2018-03-04T19:52:45.202Z,33.27
2018-03-04T19:55:19.885Z,33.70
2018-03-04T19:57:54.406Z,34.63
2018-03-04T20:00:28.966Z,34.40
2018-03-04T20:03:03.564Z,34.23
2018-03-04T20:05:38.257Z,34.43
2018-03-04T20:08:12.741Z,35.40
2018-03-04T20:10:47.344Z,35.03
2018-03-04T20:13:21.977Z,35.50
2018-03-04T20:15:51.389Z,35.53
2018-03-04T20:18:26.807Z,35.70
2018-03-04T20:21:02.288Z,34.87
2018-03-04T20:23:38.184Z,36.30
2018-03-04T20:26:13.501Z,36.20
2018-03-04T20:28:48.193Z,34.73
2018-03-04T20:31:21.047Z,36.53
2018-03-04T20:33:55.813Z,36.00
2018-03-04T20:36:26.117Z,36.90
2018-03-04T20:38:55.624Z,36.93
2018-03-04T20:41:25.934Z,37.23
2018-03-04T20:43:55.893Z,35.80
2018-03-04T20:46:25.306Z,38.90
2018-03-04T20:48:54.725Z,36.30
2018-03-04T20:51:24.214Z,36.00
2018-03-04T20:53:53.789Z,37.13
2018-03-04T20:56:24.087Z,38.57
2018-03-04T20:58:54.749Z,37.10
2018-03-04T21:01:25.220Z,39.40
2018-03-04T21:03:54.627Z,38.20
2018-03-04T21:06:24.196Z,38.57
2018-03-04T21:08:54.564Z,37.93
2018-03-04T21:11:24.124Z,39.23
2018-03-04T21:13:54.215Z,39.10
2018-03-04T21:16:24.002Z,37.80
2018-03-04T21:18:53.638Z,36.77
2018-03-04T21:21:24.125Z,38.20
2018-03-04T21:23:58.830Z,36.57
2018-03-04T21:26:33.581Z,40.50
2018-03-04T21:29:08.235Z,36.83
2018-03-04T21:31:42.998Z,38.70
2018-03-04T21:34:17.834Z,36.40
2018-03-04T21:36:52.488Z,37.43
2018-03-04T21:39:27.178Z,37.00
2018-03-04T21:42:01.668Z,37.13
2018-03-04T21:44:36.303Z,36.00
2018-03-04T21:47:11.048Z,34.97
2018-03-04T21:49:45.975Z,34.53
2018-03-04T21:52:21.563Z,33.90
2018-03-04T21:54:56.120Z,34.83
2018-03-04T21:57:30.934Z,35.37
2018-03-04T22:00:05.762Z,35.47
2018-03-04T22:02:40.430Z,32.73
2018-03-04T22:05:15.235Z,31.43
2018-03-04T22:07:50.554Z,31.53
2018-03-04T22:10:25.253Z,30.97
2018-03-04T22:12:59.972Z,32.23
2018-03-04T22:15:36.187Z,30.33
2018-03-04T22:18:11.423Z,30.40
2018-03-04T22:20:45.956Z,29.00
2018-03-04T22:23:20.523Z,31.40
2018-03-04T22:25:55.211Z,26.33
2018-03-04T22:28:29.924Z,25.37
2018-03-04T22:31:04.565Z,22.77
2018-03-04T22:33:39.164Z,21.77
2018-03-04T22:36:13.858Z,23.20
2018-03-04T22:38:48.526Z,28.57
2018-03-04T22:41:23.841Z,24.47
2018-03-04T22:43:58.379Z,15.47
2018-03-04T22:46:32.958Z,12.47
2018-03-04T22:49:08.447Z,11.20
2018-03-04T22:51:43.048Z,9.40
2018-03-04T22:54:17.696Z,8.70
2018-03-04T22:56:52.405Z,8.40
2018-03-04T22:59:27.728Z,8.33
2018-03-04T23:02:02.243Z,8.67
2018-03-04T23:04:36.968Z,7.97
2018-03-04T23:07:11.804Z,7.80
2018-03-04T23:09:46.947Z,7.87
2018-03-04T23:12:21.428Z,7.50
2018-03-04T23:14:55.846Z,7.63
2018-03-04T23:17:30.377Z,7.50
2018-03-04T23:20:05.084Z,7.50
2018-03-04T23:22:39.669Z,7.60
2018-03-04T23:25:15.117Z,8.00
2018-03-04T23:27:49.741Z,7.90
2018-03-04T23:30:24.394Z,19.60
2018-03-04T23:32:58.982Z,22.27
2018-03-04T23:35:33.621Z,25.07
2018-03-04T23:38:08.244Z,22.17
2018-03-04T23:40:43.040Z,17.77
2018-03-04T23:43:17.615Z,16.33
2018-03-04T23:45:52.211Z,17.10
2018-03-04T23:48:26.860Z,17.17
2018-03-04T23:51:01.496Z,16.97
2018-03-04T23:53:36.136Z,16.37
2018-03-04T23:56:10.664Z,15.53
2018-03-04T23:58:45.427Z,12.70
